Time;durP1;ratioP1;P1;durP2;ratioP2;P2;SDS_P1;SDS_P2;PMS_P1;PMS_P2;Temp;Humidity;BMP_temperature;BMP_pressure;BME280_temperature;BME280_humidity;BME280_pressure;Samples;Min_cycle;Max_cycle;Signal;HPM_P1;HPM_P2
2020/12/05 00:00:44;;;;;;;23.57;10.72;;;2.80;99.90;;;;;;1980659;72;21071;-75
2020/12/05 00:03:10;;;;;;;24.63;11.43;;;2.70;99.90;;;;;;1970148;72;21161;-75
2020/12/05 00:05:36;;;;;;;20.70;12.05;;;2.60;99.90;;;;;;1981664;72;21567;-74
2020/12/05 00:08:02;;;;;;;21.27;10.25;;;2.50;99.90;;;;;;1966427;73;21431;-76
2020/12/05 00:10:29;;;;;;;18.92;10.80;;;2.60;99.90;;;;;;1978618;72;21491;-76
2020/12/05 00:12:55;;;;;;;18.92;10.60;;;2.60;99.90;;;;;;1979773;72;21056;-76
2020/12/05 00:15:21;;;;;;;22.80;10.58;;;2.80;99.90;;;;;;1968108;72;21061;-74
2020/12/05 00:17:47;;;;;;;31.15;11.28;;;2.70;99.90;;;;;;1975583;72;21080;-76
2020/12/05 00:20:13;;;;;;;21.85;11.97;;;2.60;99.90;;;;;;1969185;72;21064;-73
2020/12/05 00:22:40;;;;;;;23.05;11.15;;;2.50;99.90;;;;;;1975105;72;21166;-77
2020/12/05 00:25:06;;;;;;;22.07;11.93;;;2.60;99.90;;;;;;1966670;73;21029;-75
2020/12/05 00:27:32;;;;;;;23.85;11.80;;;2.60;99.90;;;;;;1974148;72;21060;-76
2020/12/05 00:29:58;;;;;;;20.77;10.72;;;2.60;99.90;;;;;;1974056;72;21460;-75
2020/12/05 00:32:27;;;;;;;23.92;11.63;;;2.60;99.90;;;;;;1985035;72;21448;-75
2020/12/05 00:34:52;;;;;;;22.40;10.70;;;2.70;99.90;;;;;;1980152;72;21167;-75
2020/12/05 00:37:18;;;;;;;26.77;12.18;;;2.80;99.90;;;;;;1982147;72;21033;-75
2020/12/05 00:39:44;;;;;;;26.20;11.40;;;2.60;99.90;;;;;;1986927;72;21056;-75
2020/12/05 00:42:10;;;;;;;23.07;12.30;;;2.50;99.90;;;;;;1985873;72;21062;-76
2020/12/05 00:44:36;;;;;;;31.85;12.25;;;2.50;99.90;;;;;;1973066;72;21119;-75
2020/12/05 00:47:02;;;;;;;27.40;11.85;;;2.50;99.90;;;;;;1983416;72;21448;-75
2020/12/05 00:49:29;;;;;;;24.20;11.22;;;2.50;99.90;;;;;;1983910;72;21468;-75
2020/12/05 00:51:55;;;;;;;26.27;10.53;;;2.50;99.90;;;;;;1971807;72;21060;-75
2020/12/05 00:54:21;;;;;;;27.55;11.43;;;2.60;99.90;;;;;;1975678;72;21137;-75
2020/12/05 00:56:49;;;;;;;23.32;11.73;;;2.60;99.90;;;;;;1981276;72;21063;-75
2020/12/05 00:59:15;;;;;;;20.40;10.55;;;2.80;99.90;;;;;;1966336;72;21076;-76
2020/12/05 01:01:41;;;;;;;22.85;11.05;;;2.90;99.90;;;;;;1973096;72;21037;-75
2020/12/05 01:04:07;;;;;;;23.42;10.65;;;2.90;99.90;;;;;;1974780;72;21153;-74
2020/12/05 01:06:33;;;;;;;19.73;10.75;;;3.00;99.90;;;;;;1975570;72;21251;-76
2020/12/05 01:08:59;;;;;;;25.65;11.45;;;2.90;99.90;;;;;;1982249;72;21071;-75
2020/12/05 01:11:28;;;;;;;28.32;10.95;;;3.00;99.90;;;;;;1976894;72;21048;-76
2020/12/05 01:13:54;;;;;;;21.48;11.43;;;2.90;99.90;;;;;;1983491;72;21467;-75
2020/12/05 01:16:21;;;;;;;26.50;10.98;;;2.80;99.90;;;;;;1968136;72;21048;-74
2020/12/05 01:18:47;;;;;;;30.20;12.13;;;2.90;99.90;;;;;;1975886;72;21193;-75
2020/12/05 01:21:13;;;;;;;30.55;10.85;;;3.00;99.90;;;;;;1986661;72;21064;-75
2020/12/05 01:23:39;;;;;;;29.20;11.35;;;2.90;99.90;;;;;;1986543;72;21053;-76
2020/12/05 01:26:05;;;;;;;25.08;11.30;;;2.90;99.90;;;;;;1974552;72;21072;-76
2020/12/05 01:28:31;;;;;;;20.68;10.85;;;2.90;99.90;;;;;;1966427;72;21056;-76
2020/12/05 01:30:57;;;;;;;21.87;11.20;;;2.90;99.90;;;;;;1975871;72;21075;-76
2020/12/05 01:33:23;;;;;;;21.12;10.98;;;3.00;99.90;;;;;;1979744;72;21483;-76
2020/12/05 01:35:50;;;;;;;24.70;10.23;;;3.00;99.90;;;;;;1976710;72;21045;-75
2020/12/05 01:38:19;;;;;;;19.37;10.32;;;3.00;99.90;;;;;;1973484;72;21099;-75
2020/12/05 01:40:45;;;;;;;19.20;10.65;;;3.00;99.90;;;;;;1966424;72;21153;-75
2020/12/05 01:43:11;;;;;;;17.48;9.18;;;3.10;99.90;;;;;;1966532;72;21177;-76
2020/12/05 01:45:39;;;;;;;18.65;10.03;;;3.20;99.90;;;;;;1982510;72;21130;-76
2020/12/05 01:48:05;;;;;;;24.75;10.98;;;3.20;99.90;;;;;;1972712;72;21065;-76
2020/12/05 01:50:31;;;;;;;22.35;10.35;;;3.20;99.90;;;;;;1961245;72;21071;-75
2020/12/05 01:52:57;;;;;;;20.85;10.50;;;3.20;99.90;;;;;;1961656;72;21119;-75
2020/12/05 01:55:23;;;;;;;23.42;10.43;;;3.20;99.90;;;;;;1966571;72;21076;-74
2020/12/05 01:57:49;;;;;;;14.70;9.50;;;3.20;99.90;;;;;;1985523;72;21076;-76
2020/12/05 02:00:16;;;;;;;20.55;10.82;;;3.30;99.90;;;;;;1972555;72;21144;-76
2020/12/05 02:02:44;;;;;;;20.97;10.58;;;3.10;99.90;;;;;;1983610;72;21064;-76
2020/12/05 02:05:10;;;;;;;22.77;10.28;;;3.10;99.90;;;;;;1986696;72;21159;-75
2020/12/05 02:07:36;;;;;;;29.90;12.07;;;3.20;99.90;;;;;;1972917;72;21096;-74
2020/12/05 02:10:03;;;;;;;28.40;11.33;;;3.30;99.90;;;;;;1977400;72;21064;-75
2020/12/05 02:12:29;;;;;;;22.75;10.60;;;3.20;99.90;;;;;;1966656;72;21129;-75
2020/12/05 02:14:55;;;;;;;24.02;10.45;;;3.20;99.90;;;;;;1974166;72;21125;-75
2020/12/05 02:17:21;;;;;;;21.70;11.30;;;3.20;99.90;;;;;;1966537;72;21036;-73
2020/12/05 02:19:47;;;;;;;23.42;11.05;;;3.10;99.90;;;;;;1974138;72;21107;-75
2020/12/05 02:22:13;;;;;;;23.22;10.88;;;3.10;99.90;;;;;;1968151;72;21066;-74
2020/12/05 02:24:39;;;;;;;22.37;11.35;;;3.10;99.90;;;;;;1979924;72;21063;-74
2020/12/05 02:27:05;;;;;;;18.60;10.68;;;3.00;99.90;;;;;;1970247;72;21137;-74
2020/12/05 02:29:32;;;;;;;34.18;11.48;;;3.10;99.90;;;;;;1966768;72;21147;-74
2020/12/05 02:31:58;;;;;;;24.30;11.50;;;2.90;99.90;;;;;;1979890;72;21122;-74
2020/12/05 02:34:24;;;;;;;23.25;11.38;;;2.80;99.90;;;;;;1981274;72;21052;-75
2020/12/05 02:36:50;;;;;;;17.98;10.93;;;2.90;99.90;;;;;;1970214;72;21055;-75
2020/12/05 02:39:16;;;;;;;22.95;11.43;;;2.80;99.90;;;;;;1970244;72;21099;-75
2020/12/05 02:41:42;;;;;;;20.85;11.08;;;2.80;99.90;;;;;;1966483;73;21032;-75
2020/12/05 02:44:08;;;;;;;21.87;10.55;;;2.70;99.90;;;;;;1966431;72;21141;-76
2020/12/05 02:46:34;;;;;;;18.10;10.55;;;2.70;99.90;;;;;;1970266;72;21052;-76
2020/12/05 02:49:01;;;;;;;22.65;11.05;;;2.70;99.90;;;;;;1986782;72;21113;-75
2020/12/05 02:51:27;;;;;;;19.40;10.75;;;2.60;99.90;;;;;;1934254;73;21169;-76
2020/12/05 02:53:56;;;;;;;22.30;10.48;;;2.60;99.90;;;;;;1980949;72;21111;-76
2020/12/05 02:56:21;;;;;;;27.67;11.95;;;2.50;99.90;;;;;;1969419;72;21162;-75
2020/12/05 02:58:47;;;;;;;25.77;11.55;;;2.60;99.90;;;;;;1977640;72;21064;-75
2020/12/05 03:01:13;;;;;;;22.90;11.05;;;2.40;99.90;;;;;;1986684;72;21060;-75
2020/12/05 03:03:39;;;;;;;26.20;12.33;;;2.00;99.90;;;;;;1986707;72;21068;-76
2020/12/05 03:06:08;;;;;;;22.90;10.53;;;2.10;99.90;;;;;;1972974;72;21040;-76
2020/12/05 03:08:33;;;;;;;21.60;11.60;;;2.10;99.90;;;;;;1978427;72;21081;-75
2020/12/05 03:10:59;;;;;;;21.17;11.83;;;2.10;99.90;;;;;;1976122;72;21149;-75
2020/12/05 03:13:27;;;;;;;26.27;11.15;;;2.10;99.90;;;;;;1984477;71;21126;-76
2020/12/05 03:15:53;;;;;;;28.50;11.65;;;2.00;99.90;;;;;;1966352;72;21071;-75
2020/12/05 03:18:19;;;;;;;17.67;9.58;;;2.00;99.90;;;;;;1966428;73;21137;-76
2020/12/05 03:20:45;;;;;;;21.50;11.57;;;2.00;99.90;;;;;;1963924;72;21032;-76
2020/12/05 03:23:11;;;;;;;19.52;10.75;;;2.00;99.90;;;;;;1970223;72;21044;-75
2020/12/05 03:25:37;;;;;;;18.85;9.85;;;2.00;99.90;;;;;;1981478;72;21048;-75
2020/12/05 03:28:04;;;;;;;20.82;10.25;;;1.90;99.90;;;;;;1986657;72;21196;-76
2020/12/05 03:30:30;;;;;;;22.58;10.68;;;1.80;99.90;;;;;;1972045;72;21088;-76
2020/12/05 03:32:56;;;;;;;19.50;10.55;;;1.80;99.90;;;;;;1970279;72;21045;-75
2020/12/05 03:35:25;;;;;;;18.40;10.72;;;1.80;99.90;;;;;;1966547;72;21137;-76
2020/12/05 03:37:50;;;;;;;20.37;10.48;;;1.90;99.90;;;;;;1971871;72;21537;-76
2020/12/05 03:40:16;;;;;;;16.67;9.80;;;1.90;99.90;;;;;;1986704;72;21475;-77
2020/12/05 03:42:42;;;;;;;19.52;10.05;;;1.90;99.90;;;;;;1973401;72;21153;-77
2020/12/05 03:45:08;;;;;;;20.08;9.38;;;1.90;99.90;;;;;;1966410;73;21075;-76
2020/12/05 03:47:35;;;;;;;17.12;9.48;;;1.90;99.90;;;;;;1972465;72;21029;-77
2020/12/05 03:50:03;;;;;;;21.68;10.50;;;1.90;99.90;;;;;;1971384;72;21059;-76
2020/12/05 03:52:28;;;;;;;19.35;10.30;;;1.90;99.90;;;;;;1966349;73;21503;-77
2020/12/05 03:54:55;;;;;;;22.20;10.10;;;2.00;99.90;;;;;;1974115;72;21479;-77
2020/12/05 03:57:21;;;;;;;15.23;9.30;;;2.00;99.90;;;;;;1980817;72;21134;-76
2020/12/05 03:59:47;;;;;;;17.07;9.35;;;1.90;99.90;;;;;;1972823;72;21103;-76
2020/12/05 04:02:15;;;;;;;16.32;9.60;;;1.90;99.90;;;;;;1982436;72;21037;-76
2020/12/05 04:04:41;;;;;;;17.75;9.78;;;2.00;99.90;;;;;;1974142;72;21063;-76
2020/12/05 04:07:07;;;;;;;16.57;9.85;;;2.00;99.90;;;;;;1969912;72;21181;-76
2020/12/05 04:09:34;;;;;;;12.88;8.28;;;1.90;99.90;;;;;;1966611;72;21129;-76
2020/12/05 04:12:01;;;;;;;14.07;7.87;;;2.00;99.90;;;;;;1968177;72;21048;-76
2020/12/05 04:14:27;;;;;;;13.25;7.45;;;2.00;99.90;;;;;;1986878;72;21053;-76
2020/12/05 04:16:53;;;;;;;9.50;6.92;;;2.10;99.90;;;;;;1970675;72;21063;-76
2020/12/05 04:19:19;;;;;;;11.55;7.00;;;2.10;99.90;;;;;;1977879;72;21075;-76
2020/12/05 04:21:45;;;;;;;13.53;7.60;;;2.10;99.90;;;;;;1966651;73;21029;-76
2020/12/05 04:24:11;;;;;;;9.93;6.87;;;2.20;99.90;;;;;;1974104;72;21503;-77
2020/12/05 04:26:37;;;;;;;13.22;7.83;;;2.20;99.90;;;;;;1974109;72;21558;-77
2020/12/05 04:29:03;;;;;;;18.30;8.53;;;2.20;99.90;;;;;;1966562;72;21483;-76
2020/12/05 04:31:30;;;;;;;12.98;7.45;;;2.10;99.90;;;;;;1966594;72;21059;-76
2020/12/05 04:33:56;;;;;;;15.58;8.40;;;2.00;99.90;;;;;;1966566;72;21071;-76
2020/12/05 04:36:22;;;;;;;13.20;7.12;;;2.10;99.90;;;;;;1974286;72;21049;-76
2020/12/05 04:38:48;;;;;;;11.08;7.05;;;2.10;99.90;;;;;;1968824;72;21123;-76
2020/12/05 04:41:16;;;;;;;10.50;7.08;;;2.10;99.90;;;;;;1979276;72;21056;-76
2020/12/05 04:43:42;;;;;;;10.30;6.50;;;2.20;99.90;;;;;;1968568;72;21204;-75
2020/12/05 04:46:08;;;;;;;12.45;6.90;;;2.20;99.90;;;;;;1966390;72;21254;-76
2020/12/05 04:48:34;;;;;;;9.80;6.47;;;2.20;99.90;;;;;;1966364;72;21133;-76
2020/12/05 04:51:01;;;;;;;11.35;6.50;;;2.30;99.90;;;;;;1973995;72;21495;-76
2020/12/05 04:53:27;;;;;;;10.80;6.05;;;2.20;99.90;;;;;;1966700;72;21087;-76
2020/12/05 04:55:53;;;;;;;11.70;5.90;;;2.20;99.90;;;;;;1985199;72;21068;-76
2020/12/05 04:58:20;;;;;;;7.50;5.55;;;2.10;99.90;;;;;;1974182;72;21134;-75
2020/12/05 05:00:46;;;;;;;7.85;5.70;;;2.10;99.90;;;;;;1973502;72;21429;-75
2020/12/05 05:03:12;;;;;;;12.65;6.40;;;2.10;99.90;;;;;;1966543;72;21468;-75
2020/12/05 05:05:38;;;;;;;16.97;6.97;;;2.10;99.90;;;;;;1966551;73;21592;-75
2020/12/05 05:08:05;;;;;;;12.03;6.95;;;2.10;99.90;;;;;;1973676;72;21064;-76
2020/12/05 05:10:33;;;;;;;15.68;7.05;;;2.00;99.90;;;;;;1981710;72;21060;-75
2020/12/05 05:12:59;;;;;;;10.23;6.30;;;2.00;99.90;;;;;;1982017;72;21089;-75
2020/12/05 05:15:31;;;;;;;8.78;6.50;;;2.10;99.90;;;;;;1973346;72;21052;-75
2020/12/05 05:17:58;;;;;;;11.65;5.78;;;2.10;99.90;;;;;;1968203;72;21507;-76
2020/12/05 05:20:24;;;;;;;11.20;5.72;;;2.20;99.90;;;;;;1975612;72;21071;-75
2020/12/05 05:22:51;;;;;;;10.08;6.17;;;2.20;99.90;;;;;;1983589;72;21118;-76
2020/12/05 05:25:18;;;;;;;9.93;6.15;;;2.10;99.90;;;;;;1986872;72;21099;-75
2020/12/05 05:27:44;;;;;;;10.48;5.60;;;2.10;99.90;;;;;;1979498;72;21056;-75
2020/12/05 05:30:12;;;;;;;13.68;7.40;;;2.00;99.90;;;;;;1983082;72;21063;-75
2020/12/05 05:32:46;;;;;;;10.93;6.40;;;2.10;99.90;;;;;;1975776;72;21096;-74
2020/12/05 05:35:14;;;;;;;12.43;6.53;;;2.20;99.90;;;;;;1981026;72;21084;-76
2020/12/05 05:37:41;;;;;;;10.98;6.47;;;2.30;99.90;;;;;;1966379;72;21064;-75
2020/12/05 05:40:08;;;;;;;12.28;6.58;;;2.30;99.90;;;;;;1980457;72;21118;-75
2020/12/05 05:42:35;;;;;;;10.72;7.12;;;2.30;99.90;;;;;;1966866;72;21036;-76
2020/12/05 05:45:01;;;;;;;11.57;6.55;;;2.20;99.90;;;;;;1970163;72;21141;-75
2020/12/05 05:47:27;;;;;;;9.53;6.17;;;2.10;99.90;;;;;;1977845;72;21637;-75
2020/12/05 05:49:53;;;;;;;8.48;6.17;;;2.20;99.90;;;;;;1966332;72;21048;-76
2020/12/05 05:52:21;;;;;;;10.03;5.92;;;2.30;99.90;;;;;;1980670;72;21064;-76
2020/12/05 05:54:47;;;;;;;9.93;6.42;;;2.40;99.90;;;;;;1966501;72;21124;-76
2020/12/05 05:57:16;;;;;;;9.18;5.65;;;2.40;99.90;;;;;;1966506;72;21001;-77
2020/12/05 05:59:42;;;;;;;9.55;5.95;;;2.40;99.90;;;;;;1973632;72;21029;-77
2020/12/05 06:02:08;;;;;;;12.10;5.55;;;2.30;99.90;;;;;;1966602;72;21055;-77
2020/12/05 06:04:34;;;;;;;7.70;5.40;;;2.40;99.90;;;;;;1980658;72;21060;-78
2020/12/05 06:07:00;;;;;;;13.88;5.75;;;2.50;99.90;;;;;;1978178;72;21133;-77
2020/12/05 06:09:27;;;;;;;9.88;5.80;;;2.40;99.90;;;;;;1974315;72;21072;-76
2020/12/05 06:11:53;;;;;;;8.00;5.50;;;2.40;99.90;;;;;;1986806;72;21425;-76
2020/12/05 06:14:21;;;;;;;9.48;5.60;;;2.50;99.90;;;;;;1975738;72;21420;-76
2020/12/05 06:16:47;;;;;;;7.87;5.53;;;2.40;99.90;;;;;;1980832;72;21187;-76
2020/12/05 06:19:13;;;;;;;8.38;5.47;;;2.40;99.90;;;;;;1966578;72;21063;-77
2020/12/05 06:21:39;;;;;;;7.28;4.92;;;2.40;99.90;;;;;;1969667;72;21075;-76
2020/12/05 06:24:05;;;;;;;9.40;4.87;;;2.50;99.90;;;;;;1974006;72;21537;-76
2020/12/05 06:26:31;;;;;;;5.17;4.30;;;2.60;99.90;;;;;;1979511;72;21064;-76
2020/12/05 06:28:58;;;;;;;8.23;4.65;;;2.60;99.90;;;;;;1976056;72;21056;-76
2020/12/05 06:31:26;;;;;;;8.03;4.30;;;2.50;99.90;;;;;;1979851;72;21036;-76
2020/12/05 06:33:51;;;;;;;6.75;4.72;;;2.50;99.90;;;;;;1975337;72;21151;-77
2020/12/05 06:36:18;;;;;;;6.20;4.30;;;2.30;99.90;;;;;;1972192;72;21095;-77
2020/12/05 06:38:44;;;;;;;5.87;3.67;;;2.30;99.90;;;;;;1972200;72;21056;-77
2020/12/05 06:41:10;;;;;;;6.33;3.90;;;2.30;99.90;;;;;;1971935;72;21052;-76
2020/12/05 06:43:36;;;;;;;7.62;4.53;;;2.50;99.90;;;;;;1983612;72;21056;-77
2020/12/05 06:46:02;;;;;;;11.08;4.78;;;2.30;99.90;;;;;;1972205;72;21141;-74
2020/12/05 06:48:28;;;;;;;10.10;4.67;;;2.40;99.90;;;;;;1971954;72;21087;-75
2020/12/05 06:50:54;;;;;;;5.55;4.70;;;2.40;99.90;;;;;;1971256;72;21063;-76
2020/12/05 06:53:20;;;;;;;7.80;5.03;;;2.40;99.90;;;;;;1969836;72;21056;-75
2020/12/05 06:55:46;;;;;;;10.13;6.25;;;2.30;99.90;;;;;;1969815;72;21168;-75
2020/12/05 06:58:13;;;;;;;11.88;6.00;;;2.10;99.90;;;;;;1977548;72;21480;-76
2020/12/05 07:00:39;;;;;;;17.02;4.95;;;2.20;99.90;;;;;;1973903;72;21509;-76
2020/12/05 07:03:05;;;;;;;9.33;5.45;;;2.20;99.90;;;;;;1966383;73;21524;-76
2020/12/05 07:05:31;;;;;;;9.20;5.22;;;2.20;99.90;;;;;;1974138;72;21157;-75
2020/12/05 07:07:58;;;;;;;6.72;4.83;;;2.30;99.90;;;;;;1976996;72;21331;-75
2020/12/05 07:10:24;;;;;;;7.05;5.30;;;2.30;99.90;;;;;;1968413;72;21452;-74
2020/12/05 07:12:50;;;;;;;15.80;6.28;;;2.30;99.90;;;;;;1986651;72;21131;-75
2020/12/05 07:15:16;;;;;;;7.00;4.62;;;2.30;99.90;;;;;;1979645;72;21067;-75
2020/12/05 07:17:43;;;;;;;8.53;4.75;;;2.30;99.90;;;;;;1986569;72;21076;-75
2020/12/05 07:20:09;;;;;;;8.43;5.00;;;2.30;99.90;;;;;;1969375;72;21064;-75
2020/12/05 07:22:39;;;;;;;9.25;5.12;;;2.30;99.90;;;;;;1981516;71;21138;-75
2020/12/05 07:25:03;;;;;;;6.47;4.67;;;2.30;99.90;;;;;;1978647;72;21105;-74
2020/12/05 07:27:29;;;;;;;8.30;4.67;;;2.20;99.90;;;;;;1984376;72;21064;-75
2020/12/05 07:29:55;;;;;;;7.22;4.22;;;2.10;99.90;;;;;;1966735;73;21170;-73
2020/12/05 07:32:21;;;;;;;5.40;4.33;;;2.20;99.90;;;;;;1980081;72;21033;-74
2020/12/05 07:34:47;;;;;;;5.42;4.15;;;2.20;99.90;;;;;;1979816;72;21135;-74
2020/12/05 07:37:13;;;;;;;6.87;4.03;;;2.20;99.90;;;;;;1975759;72;21071;-73
2020/12/05 07:39:39;;;;;;;4.78;3.90;;;2.10;99.90;;;;;;1979720;72;21533;-72
2020/12/05 07:42:05;;;;;;;6.03;4.65;;;2.20;99.90;;;;;;1980433;72;21597;-74
2020/12/05 07:44:32;;;;;;;5.97;4.40;;;2.20;99.90;;;;;;1966708;72;21560;-73
2020/12/05 07:46:58;;;;;;;10.13;4.70;;;2.20;99.90;;;;;;1966508;73;21103;-74
2020/12/05 07:49:24;;;;;;;7.17;5.35;;;2.30;99.90;;;;;;1978369;72;21041;-75
2020/12/05 07:51:50;;;;;;;14.03;4.97;;;2.20;99.90;;;;;;1980652;72;21025;-76
2020/12/05 07:54:17;;;;;;;5.97;4.80;;;2.20;99.90;;;;;;1967349;72;21032;-73
2020/12/05 07:56:43;;;;;;;11.22;5.78;;;2.40;99.90;;;;;;1976676;72;21067;-72
2020/12/05 07:59:09;;;;;;;7.20;5.25;;;2.40;99.90;;;;;;1970420;72;21467;-74
2020/12/05 08:01:35;;;;;;;9.55;5.50;;;2.40;99.90;;;;;;1966511;72;21511;-72
2020/12/05 08:04:01;;;;;;;9.60;5.95;;;2.50;99.90;;;;;;1967037;72;21480;-73
2020/12/05 08:06:27;;;;;;;9.55;5.50;;;2.60;99.90;;;;;;1986804;72;21133;-73
2020/12/05 08:08:53;;;;;;;8.40;5.20;;;2.50;99.90;;;;;;1967500;72;21097;-73
2020/12/05 08:11:19;;;;;;;8.93;4.90;;;2.40;99.90;;;;;;1966545;73;21041;-73
2020/12/05 08:13:47;;;;;;;10.15;5.40;;;2.30;99.90;;;;;;1967070;72;21062;-73
2020/12/05 08:16:13;;;;;;;8.08;4.80;;;2.30;99.90;;;;;;1984218;72;21589;-75
2020/12/05 08:18:39;;;;;;;9.18;4.70;;;2.40;99.90;;;;;;1967151;72;21491;-73
2020/12/05 08:21:06;;;;;;;6.50;4.90;;;2.50;99.90;;;;;;1986704;72;21057;-74
2020/12/05 08:23:32;;;;;;;9.55;5.75;;;2.60;99.90;;;;;;1966646;72;21067;-72
2020/12/05 08:25:59;;;;;;;8.45;5.17;;;2.50;99.90;;;;;;1973936;72;21076;-73
2020/12/05 08:28:25;;;;;;;6.75;4.90;;;2.40;99.90;;;;;;1979740;72;21068;-74
2020/12/05 08:30:51;;;;;;;7.37;5.22;;;2.50;99.90;;;;;;1975642;72;21484;-75
2020/12/05 08:33:17;;;;;;;8.73;4.85;;;2.60;99.90;;;;;;1986777;72;21425;-73
2020/12/05 08:35:43;;;;;;;8.73;5.53;;;2.60;99.90;;;;;;1970917;72;21414;-74
2020/12/05 08:38:10;;;;;;;6.12;4.55;;;2.60;99.90;;;;;;1966439;72;21149;-74
2020/12/05 08:40:36;;;;;;;10.32;4.65;;;2.60;99.90;;;;;;1967557;72;21067;-76
2020/12/05 08:43:03;;;;;;;5.72;4.58;;;2.60;99.90;;;;;;1986339;72;21052;-73
2020/12/05 08:45:29;;;;;;;9.98;4.75;;;2.60;99.90;;;;;;1966498;73;21055;-73
2020/12/05 08:47:55;;;;;;;12.40;5.28;;;2.70;99.90;;;;;;1970169;72;21141;-74
2020/12/05 08:50:21;;;;;;;7.95;4.28;;;2.90;99.90;;;;;;1977068;72;21059;-73
2020/12/05 08:52:47;;;;;;;7.83;4.53;;;3.00;99.90;;;;;;1966668;73;21125;-73
2020/12/05 08:55:13;;;;;;;5.22;4.03;;;3.00;99.90;;;;;;1966647;72;21046;-73
2020/12/05 08:57:39;;;;;;;6.95;4.80;;;3.10;99.90;;;;;;1984166;72;21033;-73
2020/12/05 09:00:05;;;;;;;7.60;5.60;;;3.10;99.90;;;;;;1966495;72;21067;-71
2020/12/05 09:02:32;;;;;;;8.28;4.95;;;3.10;99.90;;;;;;1981702;72;21053;-74
2020/12/05 09:04:58;;;;;;;7.28;4.95;;;3.10;99.90;;;;;;1969821;72;21072;-74
2020/12/05 09:07:24;;;;;;;8.65;5.47;;;3.30;99.90;;;;;;1974365;72;21148;-74
2020/12/05 09:09:50;;;;;;;8.98;5.00;;;3.30;99.90;;;;;;1970264;72;21483;-73
2020/12/05 09:12:16;;;;;;;13.62;5.05;;;3.20;99.90;;;;;;1971517;72;21549;-73
2020/12/05 09:14:42;;;;;;;9.48;5.05;;;3.20;99.90;;;;;;1979628;72;21429;-73
2020/12/05 09:17:08;;;;;;;6.47;4.65;;;3.10;99.90;;;;;;1983361;72;21196;-74
2020/12/05 09:19:34;;;;;;;8.48;4.72;;;3.20;99.90;;;;;;1972002;72;21136;-73
2020/12/05 09:22:00;;;;;;;10.08;5.67;;;3.20;99.90;;;;;;1966501;73;21137;-73
2020/12/05 09:24:27;;;;;;;6.85;4.72;;;3.30;99.90;;;;;;1984612;72;21072;-72
2020/12/05 09:26:53;;;;;;;7.45;4.42;;;3.40;99.90;;;;;;1983405;72;21052;-73
2020/12/05 09:29:19;;;;;;;6.67;4.80;;;3.50;99.90;;;;;;1975724;72;21084;-73
2020/12/05 09:31:45;;;;;;;8.93;5.22;;;3.60;99.90;;;;;;1983174;72;21504;-73
2020/12/05 09:34:11;;;;;;;7.92;5.45;;;3.70;99.90;;;;;;1982369;72;21440;-73
2020/12/05 09:36:37;;;;;;;7.80;4.92;;;3.60;99.90;;;;;;1980689;72;21452;-73
2020/12/05 09:39:03;;;;;;;8.10;5.03;;;3.50;99.90;;;;;;1977768;72;21134;-73
2020/12/05 09:41:29;;;;;;;6.78;5.05;;;3.50;99.90;;;;;;1981394;72;21115;-72
2020/12/05 09:43:56;;;;;;;13.28;6.83;;;3.50;99.90;;;;;;1984255;72;21064;-72
2020/12/05 09:46:22;;;;;;;11.85;5.30;;;3.50;99.90;;;;;;1966532;73;21133;-72
2020/12/05 09:48:48;;;;;;;7.95;5.53;;;3.40;99.90;;;;;;1966397;73;21067;-72
2020/12/05 09:51:14;;;;;;;8.90;5.70;;;3.30;99.90;;;;;;1977195;72;21037;-72
2020/12/05 09:53:40;;;;;;;7.72;5.55;;;3.40;99.90;;;;;;1974392;72;21049;-72
2020/12/05 09:56:06;;;;;;;8.40;5.80;;;3.60;99.90;;;;;;1966499;73;21059;-72
2020/12/05 09:58:32;;;;;;;9.08;6.05;;;3.70;99.90;;;;;;1975050;72;21181;-72
2020/12/05 10:00:58;;;;;;;11.28;6.12;;;3.70;99.90;;;;;;1986888;72;21262;-73
2020/12/05 10:03:25;;;;;;;16.25;6.37;;;3.70;99.90;;;;;;1971770;72;21149;-73
2020/12/05 10:05:51;;;;;;;15.98;6.75;;;3.60;99.90;;;;;;1971994;72;21154;-73
2020/12/05 10:08:17;;;;;;;9.63;6.40;;;3.50;99.90;;;;;;1985374;72;21056;-72
2020/12/05 10:10:43;;;;;;;15.40;6.67;;;3.40;99.90;;;;;;1969041;72;21051;-73
2020/12/05 10:13:09;;;;;;;9.53;6.20;;;3.50;99.90;;;;;;1979751;72;21080;-73
2020/12/05 10:15:35;;;;;;;8.70;6.37;;;3.40;99.90;;;;;;1980736;72;21064;-73
2020/12/05 10:18:01;;;;;;;9.48;6.08;;;3.40;99.90;;;;;;1974929;72;21134;-73
2020/12/05 10:20:28;;;;;;;12.78;6.20;;;3.50;99.90;;;;;;1986797;72;21052;-73
2020/12/05 10:22:54;;;;;;;11.57;5.83;;;3.70;99.90;;;;;;1975054;72;21471;-73
2020/12/05 10:25:20;;;;;;;9.35;5.87;;;4.00;99.90;;;;;;1966412;73;21491;-73
2020/12/05 10:27:46;;;;;;;8.98;5.92;;;4.10;99.90;;;;;;1966467;73;21133;-73
2020/12/05 10:30:12;;;;;;;7.67;5.83;;;4.10;99.90;;;;;;1966472;73;21047;-73
2020/12/05 10:32:38;;;;;;;8.65;5.37;;;4.30;99.90;;;;;;1973040;72;21326;-73
2020/12/05 10:35:04;;;;;;;8.08;5.17;;;4.30;99.90;;;;;;1970505;72;21133;-73
2020/12/05 10:37:30;;;;;;;7.92;5.85;;;4.30;99.90;;;;;;1977969;72;21052;-72
2020/12/05 10:39:56;;;;;;;14.38;6.55;;;4.30;99.90;;;;;;1979093;72;21045;-73
2020/12/05 10:42:23;;;;;;;9.55;5.58;;;4.30;99.90;;;;;;1976260;72;21071;-73
2020/12/05 10:44:49;;;;;;;8.50;5.28;;;4.30;99.90;;;;;;1966622;73;21114;-73
2020/12/05 10:47:15;;;;;;;10.10;5.37;;;4.30;99.90;;;;;;1977711;72;21064;-72
2020/12/05 10:49:41;;;;;;;7.30;5.45;;;4.30;99.90;;;;;;1970969;72;21041;-73
2020/12/05 10:52:07;;;;;;;11.85;5.80;;;4.20;99.90;;;;;;1986546;72;21056;-73
2020/12/05 10:54:33;;;;;;;6.55;4.50;;;4.30;99.90;;;;;;1986799;72;21150;-73
2020/12/05 10:56:59;;;;;;;8.55;4.08;;;4.30;99.90;;;;;;1972551;72;21599;-73
2020/12/05 10:59:25;;;;;;;7.92;4.60;;;4.20;99.90;;;;;;1975633;72;21496;-73
2020/12/05 11:01:52;;;;;;;6.15;4.30;;;4.20;99.90;;;;;;1986894;72;21557;-73
2020/12/05 11:04:18;;;;;;;8.05;4.90;;;4.20;99.90;;;;;;1970516;72;21063;-73
2020/12/05 11:06:44;;;;;;;8.03;4.95;;;4.20;99.90;;;;;;1969461;72;21076;-74
2020/12/05 11:09:10;;;;;;;5.55;4.35;;;4.20;99.90;;;;;;1976219;72;21137;-73
2020/12/05 11:11:36;;;;;;;7.60;4.75;;;4.10;99.90;;;;;;1975640;72;21061;-73
2020/12/05 11:14:02;;;;;;;10.80;5.28;;;4.00;99.90;;;;;;1973925;72;21088;-72
2020/12/05 11:16:29;;;;;;;7.90;4.67;;;4.10;99.90;;;;;;1967560;72;21153;-72
2020/12/05 11:18:55;;;;;;;8.75;5.17;;;4.20;99.90;;;;;;1973996;72;21460;-73
2020/12/05 11:21:21;;;;;;;9.53;5.45;;;4.30;99.90;;;;;;1966357;73;21503;-73
2020/12/05 11:23:47;;;;;;;6.37;5.03;;;4.30;99.90;;;;;;1975641;72;21071;-73
2020/12/05 11:26:13;;;;;;;7.00;4.92;;;4.50;99.90;;;;;;1972201;72;21064;-73
2020/12/05 11:28:39;;;;;;;10.32;5.42;;;4.50;99.90;;;;;;1972598;72;21107;-73
2020/12/05 11:31:05;;;;;;;7.08;4.65;;;4.40;99.90;;;;;;1970198;72;21149;-73
2020/12/05 11:33:31;;;;;;;8.18;5.22;;;4.60;99.90;;;;;;1969767;72;21145;-73
2020/12/05 11:35:57;;;;;;;7.78;5.50;;;4.70;99.90;;;;;;1983516;72;21053;-73
2020/12/05 11:38:24;;;;;;;7.87;5.47;;;4.80;99.90;;;;;;1972186;72;21129;-73
2020/12/05 11:40:50;;;;;;;12.70;6.55;;;4.60;99.90;;;;;;1966454;72;21153;-73
2020/12/05 11:43:16;;;;;;;9.98;5.83;;;4.50;99.90;;;;;;1966278;72;21096;-73
2020/12/05 11:45:42;;;;;;;11.53;5.92;;;4.70;99.90;;;;;;1966463;72;21072;-73
2020/12/05 11:48:08;;;;;;;10.00;6.00;;;4.70;99.90;;;;;;1970105;72;21076;-74
2020/12/05 11:50:34;;;;;;;13.40;6.40;;;4.70;99.90;;;;;;1966477;72;21075;-73
2020/12/05 11:53:00;;;;;;;10.53;6.00;;;4.70;99.90;;;;;;1977079;72;21119;-74
2020/12/05 11:55:26;;;;;;;8.40;4.95;;;4.60;99.90;;;;;;1984604;72;21421;-72
2020/12/05 11:57:53;;;;;;;8.65;5.85;;;4.60;99.90;;;;;;1970384;72;21420;-73
2020/12/05 12:00:19;;;;;;;8.30;5.83;;;4.60;99.90;;;;;;1973671;72;21509;-73
2020/12/05 12:02:45;;;;;;;12.35;6.50;;;4.60;99.90;;;;;;1981603;72;21061;-73
2020/12/05 12:05:11;;;;;;;13.18;5.15;;;4.60;99.90;;;;;;1986654;72;21052;-73
2020/12/05 12:07:37;;;;;;;9.70;5.47;;;4.50;99.90;;;;;;1978193;72;21147;-73
2020/12/05 12:10:03;;;;;;;8.90;5.15;;;4.60;99.90;;;;;;1966629;73;21141;-73
2020/12/05 12:12:29;;;;;;;7.60;5.25;;;4.70;99.90;;;;;;1966543;72;21092;-72
2020/12/05 12:14:55;;;;;;;10.93;5.83;;;4.60;99.90;;;;;;1937432;73;21067;-73
2020/12/05 12:17:22;;;;;;;7.28;5.20;;;4.50;99.90;;;;;;1966582;73;21012;-77
2020/12/05 12:19:48;;;;;;;11.40;5.92;;;4.50;99.90;;;;;;1977421;72;21053;-76
2020/12/05 12:22:14;;;;;;;10.80;5.65;;;4.60;99.90;;;;;;1966379;72;21071;-75
2020/12/05 12:24:40;;;;;;;7.97;5.55;;;4.50;99.90;;;;;;1977954;72;21190;-76
2020/12/05 12:27:06;;;;;;;7.25;4.92;;;4.60;99.90;;;;;;1969152;72;21052;-74
2020/12/05 12:29:32;;;;;;;8.30;5.25;;;4.70;99.90;;;;;;1970341;72;21111;-74
2020/12/05 12:31:58;;;;;;;8.50;4.85;;;4.70;99.90;;;;;;1966522;73;21067;-73
2020/12/05 12:34:24;;;;;;;9.10;4.45;;;4.80;99.90;;;;;;1966556;72;21483;-73
2020/12/05 12:36:50;;;;;;;10.30;4.20;;;4.80;99.90;;;;;;1973327;72;21537;-73
2020/12/05 12:39:17;;;;;;;6.10;3.77;;;4.80;99.90;;;;;;1977748;72;21500;-73
2020/12/05 12:41:43;;;;;;;4.72;3.65;;;4.70;99.90;;;;;;1984926;72;21216;-73